sensor_id;sensor_type;location;lat;lon;timestamp;P1;durP1;ratioP1;P2;durP2;ratioP2
16928;SDS011;8581;47.334;11.190;2023-03-31T00:01:02;26.00;;;19.13;;
16928;SDS011;8581;47.334;11.190;2023-03-31T00:03:34;26.87;;;19.63;;
16928;SDS011;8581;47.334;11.190;2023-03-31T00:06:06;26.30;;;19.20;;
16928;SDS011;8581;47.334;11.190;2023-03-31T00:08:37;30.27;;;20.47;;
16928;SDS011;8581;47.334;11.190;2023-03-31T00:11:09;27.33;;;18.97;;
16928;SDS011;8581;47.334;11.190;2023-03-31T00:13:40;35.93;;;19.93;;
16928;SDS011;8581;47.334;11.190;2023-03-31T00:16:12;21.53;;;17.07;;
16928;SDS011;8581;47.334;11.190;2023-03-31T00:18:44;26.03;;;18.57;;
16928;SDS011;8581;47.334;11.190;2023-03-31T00:21:16;31.20;;;18.47;;
16928;SDS011;8581;47.334;11.190;2023-03-31T00:23:54;25.03;;;17.20;;
16928;SDS011;8581;47.334;11.190;2023-03-31T00:26:26;26.97;;;16.77;;
16928;SDS011;8581;47.334;11.190;2023-03-31T00:28:58;21.87;;;15.33;;
16928;SDS011;8581;47.334;11.190;2023-03-31T00:31:29;23.73;;;15.57;;
16928;SDS011;8581;47.334;11.190;2023-03-31T00:34:01;18.03;;;14.00;;
16928;SDS011;8581;47.334;11.190;2023-03-31T00:36:32;57.00;;;15.83;;
16928;SDS011;8581;47.334;11.190;2023-03-31T00:39:04;14.27;;;11.17;;
16928;SDS011;8581;47.334;11.190;2023-03-31T00:41:37;12.43;;;9.43;;
16928;SDS011;8581;47.334;11.190;2023-03-31T00:44:10;12.27;;;9.37;;
16928;SDS011;8581;47.334;11.190;2023-03-31T00:46:45;11.13;;;9.57;;
16928;SDS011;8581;47.334;11.190;2023-03-31T00:49:22;13.37;;;10.83;;
16928;SDS011;8581;47.334;11.190;2023-03-31T00:51:53;12.43;;;10.37;;
16928;SDS011;8581;47.334;11.190;2023-03-31T00:54:23;10.60;;;9.50;;
16928;SDS011;8581;47.334;11.190;2023-03-31T00:56:55;10.77;;;9.67;;
16928;SDS011;8581;47.334;11.190;2023-03-31T00:59:27;11.10;;;9.70;;
16928;SDS011;8581;47.334;11.190;2023-03-31T01:01:58;9.53;;;8.20;;
16928;SDS011;8581;47.334;11.190;2023-03-31T01:04:30;10.70;;;9.20;;
16928;SDS011;8581;47.334;11.190;2023-03-31T01:07:05;10.63;;;9.53;;
16928;SDS011;8581;47.334;11.190;2023-03-31T01:09:35;10.20;;;8.40;;
16928;SDS011;8581;47.334;11.190;2023-03-31T01:12:07;9.77;;;8.70;;
16928;SDS011;8581;47.334;11.190;2023-03-31T01:14:38;10.53;;;9.30;;
16928;SDS011;8581;47.334;11.190;2023-03-31T01:17:10;11.07;;;9.27;;
16928;SDS011;8581;47.334;11.190;2023-03-31T01:19:48;10.80;;;9.53;;
16928;SDS011;8581;47.334;11.190;2023-03-31T01:28:14;10.97;;;8.20;;
16928;SDS011;8581;47.334;11.190;2023-03-31T01:31:11;10.70;;;9.60;;
16928;SDS011;8581;47.334;11.190;2023-03-31T01:42:35;14.97;;;11.43;;
16928;SDS011;8581;47.334;11.190;2023-03-31T01:45:15;21.87;;;12.67;;
16928;SDS011;8581;47.334;11.190;2023-03-31T01:47:51;14.53;;;11.60;;
16928;SDS011;8581;47.334;11.190;2023-03-31T01:50:26;16.37;;;12.33;;
16928;SDS011;8581;47.334;11.190;2023-03-31T01:53:00;13.17;;;11.17;;
16928;SDS011;8581;47.334;11.190;2023-03-31T01:55:34;10.93;;;9.83;;
16928;SDS011;8581;47.334;11.190;2023-03-31T02:00:41;16.17;;;10.77;;
16928;SDS011;8581;47.334;11.190;2023-03-31T02:03:14;14.33;;;10.13;;
16928;SDS011;8581;47.334;11.190;2023-03-31T02:05:47;12.70;;;10.33;;
16928;SDS011;8581;47.334;11.190;2023-03-31T02:08:23;13.07;;;9.53;;
16928;SDS011;8581;47.334;11.190;2023-03-31T02:11:03;11.70;;;8.93;;
16928;SDS011;8581;47.334;11.190;2023-03-31T02:13:35;11.07;;;8.87;;
16928;SDS011;8581;47.334;11.190;2023-03-31T02:16:08;11.00;;;9.30;;
16928;SDS011;8581;47.334;11.190;2023-03-31T02:18:38;12.63;;;10.13;;
16928;SDS011;8581;47.334;11.190;2023-03-31T02:21:10;12.00;;;9.80;;
16928;SDS011;8581;47.334;11.190;2023-03-31T02:23:41;10.67;;;9.37;;
16928;SDS011;8581;47.334;11.190;2023-03-31T02:26:14;11.13;;;9.83;;
16928;SDS011;8581;47.334;11.190;2023-03-31T02:28:45;10.80;;;9.43;;
16928;SDS011;8581;47.334;11.190;2023-03-31T02:31:22;11.50;;;9.80;;
16928;SDS011;8581;47.334;11.190;2023-03-31T02:33:52;10.30;;;9.20;;
16928;SDS011;8581;47.334;11.190;2023-03-31T02:36:23;9.93;;;8.93;;
16928;SDS011;8581;47.334;11.190;2023-03-31T02:38:58;10.17;;;9.17;;
16928;SDS011;8581;47.334;11.190;2023-03-31T02:41:29;10.57;;;9.27;;
16928;SDS011;8581;47.334;11.190;2023-03-31T02:44:01;10.23;;;9.23;;
16928;SDS011;8581;47.334;11.190;2023-03-31T02:46:33;9.67;;;8.77;;
16928;SDS011;8581;47.334;11.190;2023-03-31T02:49:05;12.27;;;9.70;;
16928;SDS011;8581;47.334;11.190;2023-03-31T02:51:44;10.77;;;9.60;;
16928;SDS011;8581;47.334;11.190;2023-03-31T02:54:23;10.77;;;9.50;;
16928;SDS011;8581;47.334;11.190;2023-03-31T02:57:13;10.37;;;8.23;;
16928;SDS011;8581;47.334;11.190;2023-03-31T03:01:11;9.87;;;8.77;;
16928;SDS011;8581;47.334;11.190;2023-03-31T03:03:00;10.57;;;9.43;;
16928;SDS011;8581;47.334;11.190;2023-03-31T03:05:31;11.27;;;9.63;;
16928;SDS011;8581;47.334;11.190;2023-03-31T03:08:06;10.63;;;9.37;;
16928;SDS011;8581;47.334;11.190;2023-03-31T03:13:45;11.83;;;9.83;;
16928;SDS011;8581;47.334;11.190;2023-03-31T03:16:18;12.00;;;9.83;;
16928;SDS011;8581;47.334;11.190;2023-03-31T03:18:56;10.93;;;9.30;;
16928;SDS011;8581;47.334;11.190;2023-03-31T03:21:27;11.10;;;9.67;;
16928;SDS011;8581;47.334;11.190;2023-03-31T03:23:59;9.80;;;8.80;;
16928;SDS011;8581;47.334;11.190;2023-03-31T03:26:30;10.13;;;8.77;;
16928;SDS011;8581;47.334;11.190;2023-03-31T03:29:02;11.10;;;8.87;;
16928;SDS011;8581;47.334;11.190;2023-03-31T03:31:34;10.17;;;8.20;;
16928;SDS011;8581;47.334;11.190;2023-03-31T03:34:05;9.67;;;8.60;;
16928;SDS011;8581;47.334;11.190;2023-03-31T03:36:37;9.50;;;8.47;;
16928;SDS011;8581;47.334;11.190;2023-03-31T03:39:08;11.07;;;8.47;;
16928;SDS011;8581;47.334;11.190;2023-03-31T03:41:40;9.37;;;8.37;;
16928;SDS011;8581;47.334;11.190;2023-03-31T03:44:12;10.40;;;8.93;;
16928;SDS011;8581;47.334;11.190;2023-03-31T03:46:43;9.63;;;8.63;;
16928;SDS011;8581;47.334;11.190;2023-03-31T03:49:15;9.60;;;8.60;;
16928;SDS011;8581;47.334;11.190;2023-03-31T03:51:46;11.30;;;8.23;;
16928;SDS011;8581;47.334;11.190;2023-03-31T03:54:18;10.30;;;8.23;;
16928;SDS011;8581;47.334;11.190;2023-03-31T03:56:50;9.97;;;8.60;;
16928;SDS011;8581;47.334;11.190;2023-03-31T03:59:21;11.33;;;8.60;;
16928;SDS011;8581;47.334;11.190;2023-03-31T04:01:53;8.50;;;7.70;;
16928;SDS011;8581;47.334;11.190;2023-03-31T04:04:24;8.30;;;7.50;;
16928;SDS011;8581;47.334;11.190;2023-03-31T04:06:56;12.87;;;7.97;;
16928;SDS011;8581;47.334;11.190;2023-03-31T04:09:28;10.70;;;8.20;;
16928;SDS011;8581;47.334;11.190;2023-03-31T04:11:59;8.83;;;7.93;;
16928;SDS011;8581;47.334;11.190;2023-03-31T04:14:31;8.23;;;7.43;;
16928;SDS011;8581;47.334;11.190;2023-03-31T04:17:03;9.23;;;7.97;;
16928;SDS011;8581;47.334;11.190;2023-03-31T04:19:34;9.07;;;8.00;;
16928;SDS011;8581;47.334;11.190;2023-03-31T04:22:06;10.30;;;8.93;;
16928;SDS011;8581;47.334;11.190;2023-03-31T04:24:37;9.23;;;8.23;;
16928;SDS011;8581;47.334;11.190;2023-03-31T04:27:09;9.30;;;8.13;;
16928;SDS011;8581;47.334;11.190;2023-03-31T04:29:41;9.80;;;8.80;;
16928;SDS011;8581;47.334;11.190;2023-03-31T04:32:12;13.40;;;11.60;;
16928;SDS011;8581;47.334;11.190;2023-03-31T04:34:44;13.83;;;10.40;;
16928;SDS011;8581;47.334;11.190;2023-03-31T04:37:16;13.73;;;9.87;;
16928;SDS011;8581;47.334;11.190;2023-03-31T04:39:47;14.30;;;9.80;;
16928;SDS011;8581;47.334;11.190;2023-03-31T04:42:19;13.27;;;9.73;;
16928;SDS011;8581;47.334;11.190;2023-03-31T04:44:50;14.10;;;10.33;;
16928;SDS011;8581;47.334;11.190;2023-03-31T04:47:22;13.70;;;10.93;;
16928;SDS011;8581;47.334;11.190;2023-03-31T04:49:54;15.60;;;11.97;;
16928;SDS011;8581;47.334;11.190;2023-03-31T04:52:25;21.13;;;13.90;;
16928;SDS011;8581;47.334;11.190;2023-03-31T04:54:57;19.63;;;14.10;;
16928;SDS011;8581;47.334;11.190;2023-03-31T04:57:28;18.70;;;14.00;;
16928;SDS011;8581;47.334;11.190;2023-03-31T05:00:00;20.00;;;14.87;;
16928;SDS011;8581;47.334;11.190;2023-03-31T05:02:32;18.57;;;14.80;;
16928;SDS011;8581;47.334;11.190;2023-03-31T05:05:09;23.13;;;17.80;;
16928;SDS011;8581;47.334;11.190;2023-03-31T05:07:40;21.37;;;16.57;;
16928;SDS011;8581;47.334;11.190;2023-03-31T05:10:12;21.63;;;17.97;;
16928;SDS011;8581;47.334;11.190;2023-03-31T05:12:44;19.37;;;14.83;;
16928;SDS011;8581;47.334;11.190;2023-03-31T05:15:15;19.67;;;15.03;;
16928;SDS011;8581;47.334;11.190;2023-03-31T05:17:47;14.87;;;12.87;;
16928;SDS011;8581;47.334;11.190;2023-03-31T05:20:19;16.10;;;13.13;;
16928;SDS011;8581;47.334;11.190;2023-03-31T05:22:50;15.00;;;11.70;;
16928;SDS011;8581;47.334;11.190;2023-03-31T05:25:22;14.07;;;11.70;;
16928;SDS011;8581;47.334;11.190;2023-03-31T05:27:53;18.47;;;13.43;;
16928;SDS011;8581;47.334;11.190;2023-03-31T05:30:25;35.60;;;31.17;;
16928;SDS011;8581;47.334;11.190;2023-03-31T05:32:57;13.77;;;10.87;;
16928;SDS011;8581;47.334;11.190;2023-03-31T05:35:28;32.10;;;28.60;;
16928;SDS011;8581;47.334;11.190;2023-03-31T05:38:00;25.63;;;22.17;;
16928;SDS011;8581;47.334;11.190;2023-03-31T05:40:31;16.57;;;14.17;;
16928;SDS011;8581;47.334;11.190;2023-03-31T05:43:03;19.57;;;17.17;;
16928;SDS011;8581;47.334;11.190;2023-03-31T05:45:34;20.23;;;18.23;;
16928;SDS011;8581;47.334;11.190;2023-03-31T05:48:06;14.73;;;13.23;;
16928;SDS011;8581;47.334;11.190;2023-03-31T05:50:38;15.23;;;11.67;;
16928;SDS011;8581;47.334;11.190;2023-03-31T05:53:09;16.33;;;12.90;;
16928;SDS011;8581;47.334;11.190;2023-03-31T05:55:41;14.53;;;13.03;;
16928;SDS011;8581;47.334;11.190;2023-03-31T05:58:12;17.43;;;15.80;;
16928;SDS011;8581;47.334;11.190;2023-03-31T06:00:44;18.10;;;16.40;;
16928;SDS011;8581;47.334;11.190;2023-03-31T06:03:16;11.43;;;10.30;;
16928;SDS011;8581;47.334;11.190;2023-03-31T06:05:47;12.80;;;10.73;;
16928;SDS011;8581;47.334;11.190;2023-03-31T06:08:19;13.77;;;12.37;;
16928;SDS011;8581;47.334;11.190;2023-03-31T06:10:50;12.70;;;11.43;;
16928;SDS011;8581;47.334;11.190;2023-03-31T06:13:22;11.27;;;10.03;;
16928;SDS011;8581;47.334;11.190;2023-03-31T06:15:55;9.67;;;8.73;;
16928;SDS011;8581;47.334;11.190;2023-03-31T06:18:27;9.53;;;8.60;;
16928;SDS011;8581;47.334;11.190;2023-03-31T06:20:58;10.47;;;9.47;;
16928;SDS011;8581;47.334;11.190;2023-03-31T06:23:29;9.67;;;8.70;;
16928;SDS011;8581;47.334;11.190;2023-03-31T06:26:02;9.83;;;8.63;;
16928;SDS011;8581;47.334;11.190;2023-03-31T06:28:34;8.33;;;7.43;;
16928;SDS011;8581;47.334;11.190;2023-03-31T06:31:06;7.23;;;6.53;;
16928;SDS011;8581;47.334;11.190;2023-03-31T06:33:37;8.40;;;7.50;;
16928;SDS011;8581;47.334;11.190;2023-03-31T06:36:09;7.93;;;7.20;;
16928;SDS011;8581;47.334;11.190;2023-03-31T06:38:40;7.97;;;7.20;;
16928;SDS011;8581;47.334;11.190;2023-03-31T06:41:12;7.47;;;6.23;;
16928;SDS011;8581;47.334;11.190;2023-03-31T06:43:43;6.93;;;5.80;;
16928;SDS011;8581;47.334;11.190;2023-03-31T06:46:15;5.80;;;5.30;;
16928;SDS011;8581;47.334;11.190;2023-03-31T06:48:46;6.13;;;5.53;;
16928;SDS011;8581;47.334;11.190;2023-03-31T06:51:18;6.47;;;5.90;;
16928;SDS011;8581;47.334;11.190;2023-03-31T06:53:50;6.87;;;6.17;;
16928;SDS011;8581;47.334;11.190;2023-03-31T06:56:22;7.77;;;5.97;;
16928;SDS011;8581;47.334;11.190;2023-03-31T06:58:54;6.70;;;6.10;;
16928;SDS011;8581;47.334;11.190;2023-03-31T07:01:25;6.37;;;5.70;;
16928;SDS011;8581;47.334;11.190;2023-03-31T07:03:57;4.80;;;4.33;;
16928;SDS011;8581;47.334;11.190;2023-03-31T07:06:28;5.33;;;4.83;;
16928;SDS011;8581;47.334;11.190;2023-03-31T07:09:00;4.10;;;3.70;;
16928;SDS011;8581;47.334;11.190;2023-03-31T07:11:32;6.20;;;3.87;;
16928;SDS011;8581;47.334;11.190;2023-03-31T07:14:10;4.23;;;3.40;;
16928;SDS011;8581;47.334;11.190;2023-03-31T07:17:02;3.37;;;3.10;;
16928;SDS011;8581;47.334;11.190;2023-03-31T07:19:39;3.50;;;3.20;;
16928;SDS011;8581;47.334;11.190;2023-03-31T07:22:12;4.37;;;3.60;;
16928;SDS011;8581;47.334;11.190;2023-03-31T07:24:43;3.60;;;3.30;;
16928;SDS011;8581;47.334;11.190;2023-03-31T07:27:15;4.07;;;3.53;;
16928;SDS011;8581;47.334;11.190;2023-03-31T07:29:47;3.63;;;3.33;;
16928;SDS011;8581;47.334;11.190;2023-03-31T07:32:18;4.10;;;3.43;;
16928;SDS011;8581;47.334;11.190;2023-03-31T07:34:50;3.43;;;3.13;;
16928;SDS011;8581;47.334;11.190;2023-03-31T07:37:22;4.10;;;3.70;;
16928;SDS011;8581;47.334;11.190;2023-03-31T07:39:53;3.97;;;3.47;;
16928;SDS011;8581;47.334;11.190;2023-03-31T07:42:29;4.30;;;3.60;;
16928;SDS011;8581;47.334;11.190;2023-03-31T07:45:05;3.63;;;3.33;;
16928;SDS011;8581;47.334;11.190;2023-03-31T07:47:37;3.53;;;2.97;;
16928;SDS011;8581;47.334;11.190;2023-03-31T07:50:11;4.67;;;4.17;;
16928;SDS011;8581;47.334;11.190;2023-03-31T07:52:42;4.30;;;3.90;;
16928;SDS011;8581;47.334;11.190;2023-03-31T07:55:16;4.97;;;3.50;;
16928;SDS011;8581;47.334;11.190;2023-03-31T07:57:48;3.40;;;3.10;;
16928;SDS011;8581;47.334;11.190;2023-03-31T08:00:19;3.67;;;3.30;;
16928;SDS011;8581;47.334;11.190;2023-03-31T08:02:51;4.23;;;3.40;;
16928;SDS011;8581;47.334;11.190;2023-03-31T08:05:23;3.70;;;3.40;;
16928;SDS011;8581;47.334;11.190;2023-03-31T08:07:54;4.20;;;3.80;;
16928;SDS011;8581;47.334;11.190;2023-03-31T08:10:26;4.23;;;3.83;;
16928;SDS011;8581;47.334;11.190;2023-03-31T08:12:58;4.90;;;3.40;;
16928;SDS011;8581;47.334;11.190;2023-03-31T08:15:29;6.90;;;4.83;;
16928;SDS011;8581;47.334;11.190;2023-03-31T08:18:02;6.37;;;5.57;;
16928;SDS011;8581;47.334;11.190;2023-03-31T08:20:32;4.30;;;3.43;;
16928;SDS011;8581;47.334;11.190;2023-03-31T08:23:04;3.57;;;2.93;;
16928;SDS011;8581;47.334;11.190;2023-03-31T08:25:36;3.70;;;3.30;;
16928;SDS011;8581;47.334;11.190;2023-03-31T08:28:07;3.73;;;3.40;;
16928;SDS011;8581;47.334;11.190;2023-03-31T08:30:39;3.40;;;3.10;;
16928;SDS011;8581;47.334;11.190;2023-03-31T08:33:10;4.20;;;3.50;;
16928;SDS011;8581;47.334;11.190;2023-03-31T08:35:42;7.37;;;3.47;;
16928;SDS011;8581;47.334;11.190;2023-03-31T08:38:14;3.70;;;3.07;;
16928;SDS011;8581;47.334;11.190;2023-03-31T08:40:45;5.33;;;3.00;;
16928;SDS011;8581;47.334;11.190;2023-03-31T08:43:20;3.33;;;3.03;;
16928;SDS011;8581;47.334;11.190;2023-03-31T08:45:49;5.53;;;4.03;;
16928;SDS011;8581;47.334;11.190;2023-03-31T08:48:24;3.30;;;3.00;;
16928;SDS011;8581;47.334;11.190;2023-03-31T08:50:59;5.27;;;3.40;;
16928;SDS011;8581;47.334;11.190;2023-03-31T08:53:30;3.27;;;2.80;;
16928;SDS011;8581;47.334;11.190;2023-03-31T08:56:01;4.73;;;3.00;;
16928;SDS011;8581;47.334;11.190;2023-03-31T08:58:40;4.37;;;3.10;;
16928;SDS011;8581;47.334;11.190;2023-03-31T09:06:49;4.45;;;2.60;;
16928;SDS011;8581;47.334;11.190;2023-03-31T09:09:28;5.07;;;3.97;;
16928;SDS011;8581;47.334;11.190;2023-03-31T09:12:04;3.93;;;3.40;;
16928;SDS011;8581;47.334;11.190;2023-03-31T09:14:36;23.50;;;17.17;;
16928;SDS011;8581;47.334;11.190;2023-03-31T09:17:17;10.17;;;7.80;;
16928;SDS011;8581;47.334;11.190;2023-03-31T09:19:48;7.73;;;5.90;;
16928;SDS011;8581;47.334;11.190;2023-03-31T09:22:37;4.23;;;3.20;;
16928;SDS011;8581;47.334;11.190;2023-03-31T09:25:10;14.33;;;4.10;;
16928;SDS011;8581;47.334;11.190;2023-03-31T09:27:42;4.57;;;2.63;;
16928;SDS011;8581;47.334;11.190;2023-03-31T09:30:20;4.27;;;2.70;;
16928;SDS011;8581;47.334;11.190;2023-03-31T09:35:42;4.17;;;2.50;;
16928;SDS011;8581;47.334;11.190;2023-03-31T09:38:13;2.40;;;2.20;;
16928;SDS011;8581;47.334;11.190;2023-03-31T09:40:45;2.40;;;2.10;;
16928;SDS011;8581;47.334;11.190;2023-03-31T09:43:22;3.43;;;2.50;;
16928;SDS011;8581;47.334;11.190;2023-03-31T09:45:52;2.27;;;2.07;;
16928;SDS011;8581;47.334;11.190;2023-03-31T09:48:25;3.47;;;2.30;;
16928;SDS011;8581;47.334;11.190;2023-03-31T09:50:57;2.30;;;1.93;;
16928;SDS011;8581;47.334;11.190;2023-03-31T09:53:31;2.27;;;2.07;;
16928;SDS011;8581;47.334;11.190;2023-03-31T09:56:04;2.63;;;2.03;;
16928;SDS011;8581;47.334;11.190;2023-03-31T09:58:39;3.47;;;2.10;;
16928;SDS011;8581;47.334;11.190;2023-03-31T10:01:11;3.37;;;2.30;;
16928;SDS011;8581;47.334;11.190;2023-03-31T10:03:49;2.23;;;1.97;;
16928;SDS011;8581;47.334;11.190;2023-03-31T10:06:22;3.53;;;2.10;;
16928;SDS011;8581;47.334;11.190;2023-03-31T10:08:54;1.90;;;1.80;;
16928;SDS011;8581;47.334;11.190;2023-03-31T10:11:26;2.47;;;2.00;;
16928;SDS011;8581;47.334;11.190;2023-03-31T10:14:03;2.90;;;1.80;;
16928;SDS011;8581;47.334;11.190;2023-03-31T10:22:03;6.93;;;4.20;;
16928;SDS011;8581;47.334;11.190;2023-03-31T10:24:38;4.07;;;2.87;;
16928;SDS011;8581;47.334;11.190;2023-03-31T10:27:18;57.83;;;30.60;;
16928;SDS011;8581;47.334;11.190;2023-03-31T10:29:52;14.70;;;7.27;;
16928;SDS011;8581;47.334;11.190;2023-03-31T10:32:26;15.03;;;9.07;;
16928;SDS011;8581;47.334;11.190;2023-03-31T10:34:57;23.03;;;12.70;;
16928;SDS011;8581;47.334;11.190;2023-03-31T10:37:29;3.40;;;2.60;;
16928;SDS011;8581;47.334;11.190;2023-03-31T10:40:18;3.20;;;2.83;;
16928;SDS011;8581;47.334;11.190;2023-03-31T10:42:57;2.97;;;2.67;;
16928;SDS011;8581;47.334;11.190;2023-03-31T10:45:23;2.60;;;2.07;;
16928;SDS011;8581;47.334;11.190;2023-03-31T10:47:55;3.93;;;3.53;;
16928;SDS011;8581;47.334;11.190;2023-03-31T10:50:28;10.93;;;7.60;;
16928;SDS011;8581;47.334;11.190;2023-03-31T10:53:05;2.50;;;2.00;;
16928;SDS011;8581;47.334;11.190;2023-03-31T10:55:38;1.10;;;1.00;;
16928;SDS011;8581;47.334;11.190;2023-03-31T10:58:35;1.53;;;1.20;;
16928;SDS011;8581;47.334;11.190;2023-03-31T11:01:13;1.43;;;1.00;;
16928;SDS011;8581;47.334;11.190;2023-03-31T11:06:32;1.30;;;1.20;;
16928;SDS011;8581;47.334;11.190;2023-03-31T11:09:10;1.40;;;1.30;;
16928;SDS011;8581;47.334;11.190;2023-03-31T11:11:42;2.43;;;1.40;;
16928;SDS011;8581;47.334;11.190;2023-03-31T11:15:29;1.73;;;1.20;;
16928;SDS011;8581;47.334;11.190;2023-03-31T11:17:17;2.20;;;1.75;;
16928;SDS011;8581;47.334;11.190;2023-03-31T11:20:38;2.33;;;1.70;;
16928;SDS011;8581;47.334;11.190;2023-03-31T11:23:16;2.30;;;1.73;;
16928;SDS011;8581;47.334;11.190;2023-03-31T11:25:54;1.93;;;1.30;;
16928;SDS011;8581;47.334;11.190;2023-03-31T11:31:40;1.83;;;1.70;;
16928;SDS011;8581;47.334;11.190;2023-03-31T11:34:26;3.07;;;1.70;;
16928;SDS011;8581;47.334;11.190;2023-03-31T11:40:14;2.87;;;2.20;;
16928;SDS011;8581;47.334;11.190;2023-03-31T11:42:48;2.57;;;2.10;;
16928;SDS011;8581;47.334;11.190;2023-03-31T11:45:25;3.20;;;2.90;;
16928;SDS011;8581;47.334;11.190;2023-03-31T11:47:58;4.03;;;3.00;;
16928;SDS011;8581;47.334;11.190;2023-03-31T11:50:28;2.13;;;1.93;;
16928;SDS011;8581;47.334;11.190;2023-03-31T11:53:01;2.70;;;2.07;;
16928;SDS011;8581;47.334;11.190;2023-03-31T11:55:32;2.20;;;2.00;;
16928;SDS011;8581;47.334;11.190;2023-03-31T11:58:06;8.50;;;6.77;;
16928;SDS011;8581;47.334;11.190;2023-03-31T12:00:41;6.20;;;5.10;;
16928;SDS011;8581;47.334;11.190;2023-03-31T12:03:32;3.00;;;2.80;;
16928;SDS011;8581;47.334;11.190;2023-03-31T12:06:04;5.37;;;4.87;;
16928;SDS011;8581;47.334;11.190;2023-03-31T12:08:38;8.70;;;6.43;;
16928;SDS011;8581;47.334;11.190;2023-03-31T12:11:14;27.43;;;18.37;;
16928;SDS011;8581;47.334;11.190;2023-03-31T12:13:53;18.77;;;12.53;;
16928;SDS011;8581;47.334;11.190;2023-03-31T12:16:31;52.93;;;31.83;;
16928;SDS011;8581;47.334;11.190;2023-03-31T12:21:54;3.10;;;2.13;;
16928;SDS011;8581;47.334;11.190;2023-03-31T12:24:39;1.70;;;1.60;;
16928;SDS011;8581;47.334;11.190;2023-03-31T12:27:16;1.87;;;1.20;;
16928;SDS011;8581;47.334;11.190;2023-03-31T12:29:45;1.00;;;1.00;;
16928;SDS011;8581;47.334;11.190;2023-03-31T12:32:17;1.03;;;1.03;;
16928;SDS011;8581;47.334;11.190;2023-03-31T12:34:53;0.90;;;0.90;;
16928;SDS011;8581;47.334;11.190;2023-03-31T12:37:27;1.30;;;1.20;;
16928;SDS011;8581;47.334;11.190;2023-03-31T12:40:03;9.03;;;6.80;;
16928;SDS011;8581;47.334;11.190;2023-03-31T12:42:35;5.97;;;4.13;;
16928;SDS011;8581;47.334;11.190;2023-03-31T12:45:14;2.77;;;2.30;;
16928;SDS011;8581;47.334;11.190;2023-03-31T12:49:08;3.97;;;3.00;;
16928;SDS011;8581;47.334;11.190;2023-03-31T12:50:52;1.97;;;1.80;;
16928;SDS011;8581;47.334;11.190;2023-03-31T12:53:30;2.50;;;2.27;;
16928;SDS011;8581;47.334;11.190;2023-03-31T12:56:08;2.50;;;1.20;;
16928;SDS011;8581;47.334;11.190;2023-03-31T12:58:40;1.20;;;1.10;;
16928;SDS011;8581;47.334;11.190;2023-03-31T13:01:19;2.80;;;2.60;;
16928;SDS011;8581;47.334;11.190;2023-03-31T13:03:51;1.10;;;1.00;;
16928;SDS011;8581;47.334;11.190;2023-03-31T13:09:46;6.10;;;5.30;;
16928;SDS011;8581;47.334;11.190;2023-03-31T13:12:17;2.03;;;1.60;;
16928;SDS011;8581;47.334;11.190;2023-03-31T13:14:49;1.33;;;1.23;;
16928;SDS011;8581;47.334;11.190;2023-03-31T13:17:22;2.67;;;2.47;;
16928;SDS011;8581;47.334;11.190;2023-03-31T13:20:10;1.53;;;1.43;;
16928;SDS011;8581;47.334;11.190;2023-03-31T13:22:30;1.63;;;1.53;;
16928;SDS011;8581;47.334;11.190;2023-03-31T13:27:57;1.63;;;1.53;;
16928;SDS011;8581;47.334;11.190;2023-03-31T13:33:24;1.53;;;1.43;;
16928;SDS011;8581;47.334;11.190;2023-03-31T13:36:01;1.70;;;1.60;;
16928;SDS011;8581;47.334;11.190;2023-03-31T13:39:01;1.33;;;1.23;;
16928;SDS011;8581;47.334;11.190;2023-03-31T13:41:50;1.87;;;1.40;;
16928;SDS011;8581;47.334;11.190;2023-03-31T13:44:27;1.40;;;1.30;;
16928;SDS011;8581;47.334;11.190;2023-03-31T13:47:04;1.20;;;1.10;;
16928;SDS011;8581;47.334;11.190;2023-03-31T13:49:45;1.20;;;0.97;;
16928;SDS011;8581;47.334;11.190;2023-03-31T13:52:17;1.23;;;1.10;;
16928;SDS011;8581;47.334;11.190;2023-03-31T13:54:57;1.30;;;1.20;;
16928;SDS011;8581;47.334;11.190;2023-03-31T13:57:46;1.27;;;1.17;;
16928;SDS011;8581;47.334;11.190;2023-03-31T14:03:12;1.80;;;1.70;;
16928;SDS011;8581;47.334;11.190;2023-03-31T14:06:19;2.07;;;1.40;;
16928;SDS011;8581;47.334;11.190;2023-03-31T14:08:42;1.87;;;0.97;;
16928;SDS011;8581;47.334;11.190;2023-03-31T14:11:20;2.20;;;2.10;;
16928;SDS011;8581;47.334;11.190;2023-03-31T14:16:36;1.83;;;1.73;;
16928;SDS011;8581;47.334;11.190;2023-03-31T14:19:20;1.20;;;1.10;;
16928;SDS011;8581;47.334;11.190;2023-03-31T14:21:57;1.37;;;1.10;;
16928;SDS011;8581;47.334;11.190;2023-03-31T14:24:31;1.10;;;1.00;;
16928;SDS011;8581;47.334;11.190;2023-03-31T14:27:04;1.80;;;1.53;;
16928;SDS011;8581;47.334;11.190;2023-03-31T14:32:45;1.73;;;1.47;;
16928;SDS011;8581;47.334;11.190;2023-03-31T14:35:21;1.40;;;1.30;;
16928;SDS011;8581;47.334;11.190;2023-03-31T14:38:05;1.80;;;1.70;;
16928;SDS011;8581;47.334;11.190;2023-03-31T14:40:41;1.80;;;1.60;;
16928;SDS011;8581;47.334;11.190;2023-03-31T14:43:10;1.53;;;1.43;;
16928;SDS011;8581;47.334;11.190;2023-03-31T14:45:39;1.43;;;1.27;;
16928;SDS011;8581;47.334;11.190;2023-03-31T14:48:13;3.23;;;1.50;;
16928;SDS011;8581;47.334;11.190;2023-03-31T14:50:45;1.60;;;1.50;;
16928;SDS011;8581;47.334;11.190;2023-03-31T14:53:16;2.03;;;1.50;;
16928;SDS011;8581;47.334;11.190;2023-03-31T14:55:47;1.50;;;1.40;;
16928;SDS011;8581;47.334;11.190;2023-03-31T14:58:23;1.90;;;1.40;;
16928;SDS011;8581;47.334;11.190;2023-03-31T15:00:54;1.50;;;1.40;;
16928;SDS011;8581;47.334;11.190;2023-03-31T15:03:26;1.67;;;1.33;;
16928;SDS011;8581;47.334;11.190;2023-03-31T15:05:58;1.50;;;1.40;;
16928;SDS011;8581;47.334;11.190;2023-03-31T15:08:29;1.50;;;1.40;;
16928;SDS011;8581;47.334;11.190;2023-03-31T15:11:02;1.20;;;1.10;;
16928;SDS011;8581;47.334;11.190;2023-03-31T15:13:33;2.33;;;1.20;;
16928;SDS011;8581;47.334;11.190;2023-03-31T15:18:47;1.40;;;1.30;;
16928;SDS011;8581;47.334;11.190;2023-03-31T15:21:19;1.65;;;1.40;;
16928;SDS011;8581;47.334;11.190;2023-03-31T15:23:52;2.95;;;1.30;;
16928;SDS011;8581;47.334;11.190;2023-03-31T15:26:24;1.15;;;1.05;;
16928;SDS011;8581;47.334;11.190;2023-03-31T15:28:56;1.50;;;1.25;;
16928;SDS011;8581;47.334;11.190;2023-03-31T15:31:27;1.82;;;1.50;;
16928;SDS011;8581;47.334;11.190;2023-03-31T15:33:58;1.20;;;1.10;;
16928;SDS011;8581;47.334;11.190;2023-03-31T15:36:30;1.27;;;1.15;;
16928;SDS011;8581;47.334;11.190;2023-03-31T15:39:02;1.40;;;1.30;;
16928;SDS011;8581;47.334;11.190;2023-03-31T15:41:33;1.23;;;1.13;;
16928;SDS011;8581;47.334;11.190;2023-03-31T15:44:06;1.53;;;1.30;;
16928;SDS011;8581;47.334;11.190;2023-03-31T15:49:27;1.27;;;1.17;;
16928;SDS011;8581;47.334;11.190;2023-03-31T15:51:59;1.20;;;1.10;;
16928;SDS011;8581;47.334;11.190;2023-03-31T15:54:39;1.80;;;1.40;;
16928;SDS011;8581;47.334;11.190;2023-03-31T15:57:13;2.77;;;1.10;;
16928;SDS011;8581;47.334;11.190;2023-03-31T15:59:44;1.67;;;1.30;;
16928;SDS011;8581;47.334;11.190;2023-03-31T16:02:18;1.50;;;1.40;;
16928;SDS011;8581;47.334;11.190;2023-03-31T16:04:49;1.50;;;1.40;;
16928;SDS011;8581;47.334;11.190;2023-03-31T16:07:21;1.77;;;1.30;;
16928;SDS011;8581;47.334;11.190;2023-03-31T16:09:54;1.00;;;1.00;;
16928;SDS011;8581;47.334;11.190;2023-03-31T16:12:27;1.63;;;1.00;;
16928;SDS011;8581;47.334;11.190;2023-03-31T16:15:02;4.50;;;1.20;;
16928;SDS011;8581;47.334;11.190;2023-03-31T16:17:35;1.17;;;1.07;;
16928;SDS011;8581;47.334;11.190;2023-03-31T16:20:40;2.27;;;2.10;;
16928;SDS011;8581;47.334;11.190;2023-03-31T16:22:55;2.40;;;2.00;;
16928;SDS011;8581;47.334;11.190;2023-03-31T16:25:26;1.57;;;1.20;;
16928;SDS011;8581;47.334;11.190;2023-03-31T16:27:58;1.60;;;1.50;;
16928;SDS011;8581;47.334;11.190;2023-03-31T16:30:33;2.10;;;1.40;;